sensor_id;sensor_type;location;lat;lon;timestamp;P1;durP1;ratioP1;P2;durP2;ratioP2
13967;SDS011;39536;52.198;9.920;2022-10-16T00:00:11;1.00;;;1.00;;
13967;SDS011;39536;52.198;9.920;2022-10-16T00:02:38;0.97;;;0.97;;
13967;SDS011;39536;52.198;9.920;2022-10-16T00:05:05;0.93;;;0.93;;
13967;SDS011;39536;52.198;9.920;2022-10-16T00:07:31;3.33;;;1.23;;
13967;SDS011;39536;52.198;9.920;2022-10-16T00:09:58;2.00;;;1.30;;
13967;SDS011;39536;52.198;9.920;2022-10-16T00:12:26;1.47;;;1.37;;
13967;SDS011;39536;52.198;9.920;2022-10-16T00:14:52;1.80;;;1.70;;
13967;SDS011;39536;52.198;9.920;2022-10-16T00:17:19;1.33;;;1.10;;
13967;SDS011;39536;52.198;9.920;2022-10-16T00:19:45;1.30;;;1.20;;
13967;SDS011;39536;52.198;9.920;2022-10-16T00:22:12;1.30;;;1.20;;
13967;SDS011;39536;52.198;9.920;2022-10-16T00:24:38;1.40;;;1.30;;
13967;SDS011;39536;52.198;9.920;2022-10-16T00:27:05;1.93;;;1.50;;
13967;SDS011;39536;52.198;9.920;2022-10-16T00:29:32;1.40;;;1.40;;
13967;SDS011;39536;52.198;9.920;2022-10-16T00:31:59;2.30;;;1.50;;
13967;SDS011;39536;52.198;9.920;2022-10-16T00:34:25;1.57;;;1.40;;
13967;SDS011;39536;52.198;9.920;2022-10-16T00:36:52;1.80;;;1.70;;
13967;SDS011;39536;52.198;9.920;2022-10-16T00:39:19;2.50;;;1.70;;
13967;SDS011;39536;52.198;9.920;2022-10-16T00:41:45;2.07;;;1.70;;
13967;SDS011;39536;52.198;9.920;2022-10-16T00:47:10;2.50;;;1.67;;
13967;SDS011;39536;52.198;9.920;2022-10-16T00:49:38;1.90;;;1.80;;
13967;SDS011;39536;52.198;9.920;2022-10-16T00:52:05;2.10;;;2.00;;
13967;SDS011;39536;52.198;9.920;2022-10-16T00:54:32;1.90;;;1.80;;
13967;SDS011;39536;52.198;9.920;2022-10-16T00:57:00;1.80;;;1.70;;
13967;SDS011;39536;52.198;9.920;2022-10-16T00:59:31;2.63;;;2.03;;
13967;SDS011;39536;52.198;9.920;2022-10-16T01:02:00;3.23;;;1.63;;
13967;SDS011;39536;52.198;9.920;2022-10-16T01:04:29;2.47;;;2.27;;
13967;SDS011;39536;52.198;9.920;2022-10-16T01:07:01;3.20;;;1.87;;
13967;SDS011;39536;52.198;9.920;2022-10-16T01:09:34;2.00;;;1.90;;
13967;SDS011;39536;52.198;9.920;2022-10-16T01:12:09;4.00;;;1.90;;
13967;SDS011;39536;52.198;9.920;2022-10-16T01:14:43;2.63;;;2.50;;
13967;SDS011;39536;52.198;9.920;2022-10-16T01:17:17;1.93;;;1.83;;
13967;SDS011;39536;52.198;9.920;2022-10-16T01:19:54;2.43;;;2.10;;
13967;SDS011;39536;52.198;9.920;2022-10-16T01:22:33;2.07;;;1.97;;
13967;SDS011;39536;52.198;9.920;2022-10-16T01:25:05;2.13;;;2.03;;
13967;SDS011;39536;52.198;9.920;2022-10-16T01:27:39;2.10;;;2.00;;
13967;SDS011;39536;52.198;9.920;2022-10-16T01:30:10;2.20;;;2.00;;
13967;SDS011;39536;52.198;9.920;2022-10-16T01:32:41;2.90;;;2.37;;
13967;SDS011;39536;52.198;9.920;2022-10-16T01:35:15;2.53;;;1.73;;
13967;SDS011;39536;52.198;9.920;2022-10-16T01:37:46;2.10;;;1.90;;
13967;SDS011;39536;52.198;9.920;2022-10-16T01:40:19;2.20;;;2.10;;
13967;SDS011;39536;52.198;9.920;2022-10-16T01:42:49;1.83;;;1.73;;
13967;SDS011;39536;52.198;9.920;2022-10-16T01:45:18;2.07;;;1.97;;
13967;SDS011;39536;52.198;9.920;2022-10-16T01:47:46;1.90;;;1.73;;
13967;SDS011;39536;52.198;9.920;2022-10-16T01:50:15;1.73;;;1.63;;
13967;SDS011;39536;52.198;9.920;2022-10-16T01:52:45;2.07;;;1.50;;
13967;SDS011;39536;52.198;9.920;2022-10-16T01:55:16;1.93;;;1.80;;
13967;SDS011;39536;52.198;9.920;2022-10-16T01:57:49;2.40;;;2.20;;
13967;SDS011;39536;52.198;9.920;2022-10-16T02:00:18;2.67;;;2.00;;
13967;SDS011;39536;52.198;9.920;2022-10-16T02:02:47;3.47;;;2.33;;
13967;SDS011;39536;52.198;9.920;2022-10-16T02:05:17;2.27;;;1.90;;
13967;SDS011;39536;52.198;9.920;2022-10-16T02:07:47;3.33;;;2.03;;
13967;SDS011;39536;52.198;9.920;2022-10-16T02:10:13;7.00;;;3.40;;
13967;SDS011;39536;52.198;9.920;2022-10-16T02:12:41;2.33;;;1.80;;
13967;SDS011;39536;52.198;9.920;2022-10-16T02:15:13;5.73;;;1.77;;
13967;SDS011;39536;52.198;9.920;2022-10-16T02:17:39;3.47;;;2.27;;
13967;SDS011;39536;52.198;9.920;2022-10-16T02:20:06;4.00;;;2.10;;
13967;SDS011;39536;52.198;9.920;2022-10-16T02:22:35;5.83;;;2.50;;
13967;SDS011;39536;52.198;9.920;2022-10-16T02:25:04;2.50;;;2.30;;
13967;SDS011;39536;52.198;9.920;2022-10-16T02:27:35;4.07;;;2.80;;
13967;SDS011;39536;52.198;9.920;2022-10-16T02:30:08;6.73;;;4.63;;
13967;SDS011;39536;52.198;9.920;2022-10-16T02:32:48;6.73;;;6.13;;
13967;SDS011;39536;52.198;9.920;2022-10-16T02:35:16;7.13;;;5.00;;
13967;SDS011;39536;52.198;9.920;2022-10-16T02:37:44;4.87;;;4.47;;
13967;SDS011;39536;52.198;9.920;2022-10-16T02:40:13;4.23;;;3.60;;
13967;SDS011;39536;52.198;9.920;2022-10-16T02:42:40;4.37;;;2.90;;
13967;SDS011;39536;52.198;9.920;2022-10-16T02:45:08;7.27;;;2.80;;
13967;SDS011;39536;52.198;9.920;2022-10-16T02:47:38;2.03;;;1.93;;
13967;SDS011;39536;52.198;9.920;2022-10-16T02:50:05;3.80;;;2.33;;
13967;SDS011;39536;52.198;9.920;2022-10-16T02:52:32;2.37;;;1.97;;
13967;SDS011;39536;52.198;9.920;2022-10-16T02:54:58;4.43;;;2.23;;
13967;SDS011;39536;52.198;9.920;2022-10-16T02:57:25;2.53;;;2.03;;
13967;SDS011;39536;52.198;9.920;2022-10-16T02:59:51;2.83;;;1.83;;
13967;SDS011;39536;52.198;9.920;2022-10-16T03:02:18;3.53;;;1.90;;
13967;SDS011;39536;52.198;9.920;2022-10-16T03:04:47;1.93;;;1.83;;
13967;SDS011;39536;52.198;9.920;2022-10-16T03:07:13;2.60;;;2.50;;
13967;SDS011;39536;52.198;9.920;2022-10-16T03:09:40;2.83;;;2.60;;
13967;SDS011;39536;52.198;9.920;2022-10-16T03:12:06;3.03;;;2.50;;
13967;SDS011;39536;52.198;9.920;2022-10-16T03:14:33;2.47;;;2.27;;
13967;SDS011;39536;52.198;9.920;2022-10-16T03:16:59;6.07;;;2.77;;
13967;SDS011;39536;52.198;9.920;2022-10-16T03:19:26;2.50;;;2.07;;
13967;SDS011;39536;52.198;9.920;2022-10-16T03:21:54;2.50;;;2.30;;
13967;SDS011;39536;52.198;9.920;2022-10-16T03:24:20;3.00;;;2.80;;
13967;SDS011;39536;52.198;9.920;2022-10-16T03:26:47;2.93;;;2.57;;
13967;SDS011;39536;52.198;9.920;2022-10-16T03:29:13;2.67;;;2.30;;
13967;SDS011;39536;52.198;9.920;2022-10-16T03:31:40;2.60;;;2.07;;
13967;SDS011;39536;52.198;9.920;2022-10-16T03:34:06;3.17;;;2.13;;
13967;SDS011;39536;52.198;9.920;2022-10-16T03:36:33;4.33;;;2.13;;
13967;SDS011;39536;52.198;9.920;2022-10-16T03:39:01;4.17;;;2.17;;
13967;SDS011;39536;52.198;9.920;2022-10-16T03:41:28;6.40;;;2.30;;
13967;SDS011;39536;52.198;9.920;2022-10-16T03:43:54;5.57;;;2.13;;
13967;SDS011;39536;52.198;9.920;2022-10-16T03:46:21;2.17;;;2.07;;
13967;SDS011;39536;52.198;9.920;2022-10-16T03:48:47;4.57;;;2.30;;
13967;SDS011;39536;52.198;9.920;2022-10-16T03:51:14;2.80;;;1.93;;
13967;SDS011;39536;52.198;9.920;2022-10-16T03:53:40;3.53;;;2.00;;
13967;SDS011;39536;52.198;9.920;2022-10-16T03:56:08;2.30;;;2.13;;
13967;SDS011;39536;52.198;9.920;2022-10-16T03:58:35;2.10;;;2.00;;
13967;SDS011;39536;52.198;9.920;2022-10-16T04:01:02;2.47;;;2.27;;
13967;SDS011;39536;52.198;9.920;2022-10-16T04:03:28;3.50;;;2.20;;
13967;SDS011;39536;52.198;9.920;2022-10-16T04:05:55;3.80;;;2.13;;
13967;SDS011;39536;52.198;9.920;2022-10-16T04:08:21;4.47;;;2.00;;
13967;SDS011;39536;52.198;9.920;2022-10-16T04:10:48;4.40;;;2.27;;
13967;SDS011;39536;52.198;9.920;2022-10-16T04:13:16;3.27;;;2.60;;
13967;SDS011;39536;52.198;9.920;2022-10-16T04:15:43;2.30;;;2.00;;
13967;SDS011;39536;52.198;9.920;2022-10-16T04:18:10;4.03;;;2.43;;
13967;SDS011;39536;52.198;9.920;2022-10-16T04:20:37;3.60;;;2.70;;
13967;SDS011;39536;52.198;9.920;2022-10-16T04:23:04;4.07;;;2.40;;
13967;SDS011;39536;52.198;9.920;2022-10-16T04:25:30;2.97;;;2.53;;
13967;SDS011;39536;52.198;9.920;2022-10-16T04:27:57;4.70;;;2.67;;
13967;SDS011;39536;52.198;9.920;2022-10-16T04:30:25;6.30;;;2.60;;
13967;SDS011;39536;52.198;9.920;2022-10-16T04:32:52;2.90;;;2.47;;
13967;SDS011;39536;52.198;9.920;2022-10-16T04:35:18;2.80;;;2.53;;
13967;SDS011;39536;52.198;9.920;2022-10-16T04:37:46;2.30;;;2.20;;
13967;SDS011;39536;52.198;9.920;2022-10-16T04:40:13;2.43;;;2.33;;
13967;SDS011;39536;52.198;9.920;2022-10-16T04:42:40;4.63;;;2.70;;
13967;SDS011;39536;52.198;9.920;2022-10-16T04:45:07;2.10;;;2.00;;
13967;SDS011;39536;52.198;9.920;2022-10-16T04:47:35;2.43;;;2.23;;
13967;SDS011;39536;52.198;9.920;2022-10-16T04:50:02;2.60;;;2.47;;
13967;SDS011;39536;52.198;9.920;2022-10-16T04:52:29;2.90;;;2.70;;
13967;SDS011;39536;52.198;9.920;2022-10-16T04:54:56;2.57;;;2.47;;
13967;SDS011;39536;52.198;9.920;2022-10-16T04:57:26;4.10;;;2.53;;
13967;SDS011;39536;52.198;9.920;2022-10-16T04:59:52;3.50;;;2.33;;
13967;SDS011;39536;52.198;9.920;2022-10-16T05:02:19;3.00;;;2.80;;
13967;SDS011;39536;52.198;9.920;2022-10-16T05:04:47;3.47;;;2.53;;
13967;SDS011;39536;52.198;9.920;2022-10-16T05:07:13;2.30;;;2.13;;
13967;SDS011;39536;52.198;9.920;2022-10-16T05:09:40;3.60;;;2.67;;
13967;SDS011;39536;52.198;9.920;2022-10-16T05:12:07;2.50;;;2.30;;
13967;SDS011;39536;52.198;9.920;2022-10-16T05:14:33;4.73;;;2.80;;
13967;SDS011;39536;52.198;9.920;2022-10-16T05:17:00;3.00;;;2.23;;
13967;SDS011;39536;52.198;9.920;2022-10-16T05:19:26;2.70;;;2.60;;
13967;SDS011;39536;52.198;9.920;2022-10-16T05:21:54;2.80;;;2.60;;
13967;SDS011;39536;52.198;9.920;2022-10-16T05:24:21;2.70;;;2.47;;
13967;SDS011;39536;52.198;9.920;2022-10-16T05:26:47;2.67;;;2.47;;
13967;SDS011;39536;52.198;9.920;2022-10-16T05:29:14;2.70;;;2.50;;
13967;SDS011;39536;52.198;9.920;2022-10-16T05:31:40;2.30;;;2.17;;
13967;SDS011;39536;52.198;9.920;2022-10-16T05:34:07;6.07;;;4.07;;
13967;SDS011;39536;52.198;9.920;2022-10-16T05:36:34;2.33;;;2.20;;
13967;SDS011;39536;52.198;9.920;2022-10-16T05:39:02;3.00;;;2.20;;
13967;SDS011;39536;52.198;9.920;2022-10-16T05:41:28;3.00;;;2.70;;
13967;SDS011;39536;52.198;9.920;2022-10-16T05:43:56;2.57;;;2.33;;
13967;SDS011;39536;52.198;9.920;2022-10-16T05:46:22;2.40;;;2.23;;
13967;SDS011;39536;52.198;9.920;2022-10-16T05:48:51;2.40;;;2.20;;
13967;SDS011;39536;52.198;9.920;2022-10-16T05:51:17;2.30;;;2.10;;
13967;SDS011;39536;52.198;9.920;2022-10-16T05:53:44;2.40;;;2.20;;
13967;SDS011;39536;52.198;9.920;2022-10-16T05:56:12;2.07;;;1.97;;
13967;SDS011;39536;52.198;9.920;2022-10-16T05:58:38;2.03;;;1.93;;
13967;SDS011;39536;52.198;9.920;2022-10-16T06:01:06;3.00;;;2.00;;
13967;SDS011;39536;52.198;9.920;2022-10-16T06:03:35;3.03;;;2.83;;
13967;SDS011;39536;52.198;9.920;2022-10-16T06:06:07;2.37;;;2.20;;
13967;SDS011;39536;52.198;9.920;2022-10-16T06:08:34;2.10;;;1.70;;
13967;SDS011;39536;52.198;9.920;2022-10-16T06:11:01;1.70;;;1.60;;
13967;SDS011;39536;52.198;9.920;2022-10-16T06:13:30;2.00;;;1.73;;
13967;SDS011;39536;52.198;9.920;2022-10-16T06:15:56;1.50;;;1.50;;
13967;SDS011;39536;52.198;9.920;2022-10-16T06:18:24;1.83;;;1.73;;
13967;SDS011;39536;52.198;9.920;2022-10-16T06:20:51;1.50;;;1.50;;
13967;SDS011;39536;52.198;9.920;2022-10-16T06:23:17;1.80;;;1.70;;
13967;SDS011;39536;52.198;9.920;2022-10-16T06:25:44;1.97;;;1.87;;
13967;SDS011;39536;52.198;9.920;2022-10-16T06:28:10;4.33;;;1.90;;
13967;SDS011;39536;52.198;9.920;2022-10-16T06:30:38;1.80;;;1.70;;
13967;SDS011;39536;52.198;9.920;2022-10-16T06:33:05;3.77;;;1.70;;
13967;SDS011;39536;52.198;9.920;2022-10-16T06:35:31;4.97;;;2.17;;
13967;SDS011;39536;52.198;9.920;2022-10-16T06:37:58;2.50;;;2.30;;
13967;SDS011;39536;52.198;9.920;2022-10-16T06:40:24;2.80;;;2.60;;
13967;SDS011;39536;52.198;9.920;2022-10-16T06:42:51;4.23;;;2.20;;
13967;SDS011;39536;52.198;9.920;2022-10-16T06:45:20;4.17;;;2.90;;
13967;SDS011;39536;52.198;9.920;2022-10-16T06:47:48;4.10;;;3.80;;
13967;SDS011;39536;52.198;9.920;2022-10-16T06:50:14;3.23;;;2.60;;
13967;SDS011;39536;52.198;9.920;2022-10-16T06:52:41;5.10;;;3.70;;
13967;SDS011;39536;52.198;9.920;2022-10-16T06:55:08;3.77;;;3.47;;
13967;SDS011;39536;52.198;9.920;2022-10-16T06:57:34;2.90;;;2.70;;
13967;SDS011;39536;52.198;9.920;2022-10-16T07:00:01;3.00;;;2.50;;
13967;SDS011;39536;52.198;9.920;2022-10-16T07:02:27;1.90;;;1.80;;
13967;SDS011;39536;52.198;9.920;2022-10-16T07:04:55;1.43;;;1.33;;
13967;SDS011;39536;52.198;9.920;2022-10-16T07:07:22;1.53;;;1.43;;
13967;SDS011;39536;52.198;9.920;2022-10-16T07:09:49;1.97;;;1.80;;
13967;SDS011;39536;52.198;9.920;2022-10-16T07:12:16;1.17;;;1.17;;
13967;SDS011;39536;52.198;9.920;2022-10-16T07:14:43;1.73;;;1.40;;
13967;SDS011;39536;52.198;9.920;2022-10-16T07:17:10;1.40;;;1.33;;
13967;SDS011;39536;52.198;9.920;2022-10-16T07:19:36;1.10;;;1.10;;
13967;SDS011;39536;52.198;9.920;2022-10-16T07:22:04;1.40;;;1.30;;
13967;SDS011;39536;52.198;9.920;2022-10-16T07:24:31;1.40;;;1.30;;
13967;SDS011;39536;52.198;9.920;2022-10-16T07:26:58;1.50;;;1.30;;
13967;SDS011;39536;52.198;9.920;2022-10-16T07:29:24;1.30;;;1.20;;
13967;SDS011;39536;52.198;9.920;2022-10-16T07:31:51;0.80;;;0.80;;
13967;SDS011;39536;52.198;9.920;2022-10-16T07:34:18;2.00;;;1.30;;
13967;SDS011;39536;52.198;9.920;2022-10-16T07:36:47;0.90;;;0.90;;
13967;SDS011;39536;52.198;9.920;2022-10-16T07:39:15;2.53;;;1.23;;
13967;SDS011;39536;52.198;9.920;2022-10-16T07:41:42;2.07;;;1.37;;
13967;SDS011;39536;52.198;9.920;2022-10-16T07:44:08;1.20;;;1.20;;
13967;SDS011;39536;52.198;9.920;2022-10-16T07:46:35;2.70;;;1.20;;
13967;SDS011;39536;52.198;9.920;2022-10-16T07:49:02;1.03;;;0.97;;
13967;SDS011;39536;52.198;9.920;2022-10-16T07:51:29;0.97;;;0.97;;
13967;SDS011;39536;52.198;9.920;2022-10-16T07:53:55;1.00;;;1.00;;
13967;SDS011;39536;52.198;9.920;2022-10-16T07:56:23;1.30;;;0.90;;
13967;SDS011;39536;52.198;9.920;2022-10-16T07:58:50;1.00;;;1.00;;
13967;SDS011;39536;52.198;9.920;2022-10-16T08:01:17;1.00;;;1.00;;
13967;SDS011;39536;52.198;9.920;2022-10-16T08:03:44;1.53;;;1.00;;
13967;SDS011;39536;52.198;9.920;2022-10-16T08:06:12;1.13;;;1.10;;
13967;SDS011;39536;52.198;9.920;2022-10-16T08:08:39;1.03;;;1.03;;
13967;SDS011;39536;52.198;9.920;2022-10-16T08:11:05;2.00;;;1.10;;
13967;SDS011;39536;52.198;9.920;2022-10-16T08:13:33;1.07;;;1.00;;
13967;SDS011;39536;52.198;9.920;2022-10-16T08:16:00;1.03;;;0.80;;
13967;SDS011;39536;52.198;9.920;2022-10-16T08:18:28;0.90;;;0.87;;
13967;SDS011;39536;52.198;9.920;2022-10-16T08:20:55;0.90;;;0.90;;
13967;SDS011;39536;52.198;9.920;2022-10-16T08:23:22;2.33;;;1.00;;
13967;SDS011;39536;52.198;9.920;2022-10-16T08:25:50;1.90;;;1.43;;
13967;SDS011;39536;52.198;9.920;2022-10-16T08:28:17;1.63;;;1.53;;
13967;SDS011;39536;52.198;9.920;2022-10-16T08:30:45;1.87;;;1.00;;
13967;SDS011;39536;52.198;9.920;2022-10-16T08:33:14;3.13;;;1.10;;
13967;SDS011;39536;52.198;9.920;2022-10-16T08:35:40;1.10;;;1.10;;
13967;SDS011;39536;52.198;9.920;2022-10-16T08:38:07;2.90;;;1.30;;
13967;SDS011;39536;52.198;9.920;2022-10-16T08:40:34;1.10;;;1.00;;
13967;SDS011;39536;52.198;9.920;2022-10-16T08:43:10;1.43;;;1.07;;
13967;SDS011;39536;52.198;9.920;2022-10-16T08:45:55;1.10;;;1.00;;
13967;SDS011;39536;52.198;9.920;2022-10-16T08:48:40;0.97;;;0.97;;
13967;SDS011;39536;52.198;9.920;2022-10-16T08:51:12;1.73;;;1.20;;
13967;SDS011;39536;52.198;9.920;2022-10-16T08:53:46;1.23;;;0.97;;
13967;SDS011;39536;52.198;9.920;2022-10-16T08:56:17;1.00;;;1.00;;
13967;SDS011;39536;52.198;9.920;2022-10-16T08:58:44;1.60;;;1.00;;
13967;SDS011;39536;52.198;9.920;2022-10-16T09:01:14;4.83;;;1.20;;
13967;SDS011;39536;52.198;9.920;2022-10-16T09:03:49;2.20;;;1.00;;
13967;SDS011;39536;52.198;9.920;2022-10-16T09:09:24;2.63;;;1.10;;
13967;SDS011;39536;52.198;9.920;2022-10-16T09:12:08;1.10;;;1.10;;
13967;SDS011;39536;52.198;9.920;2022-10-16T09:14:54;1.83;;;0.90;;
13967;SDS011;39536;52.198;9.920;2022-10-16T09:17:32;0.70;;;0.70;;
13967;SDS011;39536;52.198;9.920;2022-10-16T09:20:13;0.80;;;0.77;;
13967;SDS011;39536;52.198;9.920;2022-10-16T09:22:50;1.13;;;0.90;;
13967;SDS011;39536;52.198;9.920;2022-10-16T09:25:21;1.77;;;0.90;;
13967;SDS011;39536;52.198;9.920;2022-10-16T09:27:48;2.73;;;0.80;;
13967;SDS011;39536;52.198;9.920;2022-10-16T09:30:19;1.97;;;0.97;;
13967;SDS011;39536;52.198;9.920;2022-10-16T09:32:48;0.90;;;0.87;;
13967;SDS011;39536;52.198;9.920;2022-10-16T09:35:18;1.70;;;1.03;;
13967;SDS011;39536;52.198;9.920;2022-10-16T09:37:47;1.20;;;0.80;;
13967;SDS011;39536;52.198;9.920;2022-10-16T09:40:24;0.70;;;0.70;;
13967;SDS011;39536;52.198;9.920;2022-10-16T09:42:52;0.80;;;0.80;;
13967;SDS011;39536;52.198;9.920;2022-10-16T09:45:23;0.57;;;0.57;;
13967;SDS011;39536;52.198;9.920;2022-10-16T09:47:51;0.87;;;0.60;;
13967;SDS011;39536;52.198;9.920;2022-10-16T09:50:22;1.50;;;0.60;;
13967;SDS011;39536;52.198;9.920;2022-10-16T09:53:02;2.10;;;0.90;;
13967;SDS011;39536;52.198;9.920;2022-10-16T09:55:29;0.97;;;0.93;;
13967;SDS011;39536;52.198;9.920;2022-10-16T09:57:56;1.50;;;0.90;;
13967;SDS011;39536;52.198;9.920;2022-10-16T10:00:23;0.80;;;0.80;;
13967;SDS011;39536;52.198;9.920;2022-10-16T10:03:10;0.80;;;0.80;;
13967;SDS011;39536;52.198;9.920;2022-10-16T10:05:38;0.67;;;0.67;;
13967;SDS011;39536;52.198;9.920;2022-10-16T10:08:05;0.70;;;0.70;;
13967;SDS011;39536;52.198;9.920;2022-10-16T10:10:34;0.73;;;0.57;;
13967;SDS011;39536;52.198;9.920;2022-10-16T10:13:14;1.00;;;0.60;;
13967;SDS011;39536;52.198;9.920;2022-10-16T10:15:45;0.77;;;0.77;;
13967;SDS011;39536;52.198;9.920;2022-10-16T10:18:16;1.17;;;1.00;;
13967;SDS011;39536;52.198;9.920;2022-10-16T10:20:45;1.13;;;0.60;;
13967;SDS011;39536;52.198;9.920;2022-10-16T10:23:18;0.63;;;0.60;;
13967;SDS011;39536;52.198;9.920;2022-10-16T10:25:49;0.97;;;0.70;;
13967;SDS011;39536;52.198;9.920;2022-10-16T10:28:38;1.67;;;0.70;;
13967;SDS011;39536;52.198;9.920;2022-10-16T10:31:17;1.73;;;0.50;;
13967;SDS011;39536;52.198;9.920;2022-10-16T10:33:50;0.70;;;0.70;;
13967;SDS011;39536;52.198;9.920;2022-10-16T10:36:25;1.20;;;0.70;;
13967;SDS011;39536;52.198;9.920;2022-10-16T10:38:57;1.00;;;0.90;;
13967;SDS011;39536;52.198;9.920;2022-10-16T10:44:27;0.93;;;0.70;;
13967;SDS011;39536;52.198;9.920;2022-10-16T10:47:07;1.00;;;1.00;;
13967;SDS011;39536;52.198;9.920;2022-10-16T10:49:48;3.23;;;0.70;;
13967;SDS011;39536;52.198;9.920;2022-10-16T10:52:28;2.07;;;0.80;;
13967;SDS011;39536;52.198;9.920;2022-10-16T10:55:08;1.77;;;0.50;;
13967;SDS011;39536;52.198;9.920;2022-10-16T10:57:42;2.53;;;0.60;;
13967;SDS011;39536;52.198;9.920;2022-10-16T11:00:19;1.60;;;1.07;;
13967;SDS011;39536;52.198;9.920;2022-10-16T11:02:54;1.27;;;0.70;;
13967;SDS011;39536;52.198;9.920;2022-10-16T11:05:38;2.27;;;0.70;;
13967;SDS011;39536;52.198;9.920;2022-10-16T11:08:09;1.10;;;0.70;;
13967;SDS011;39536;52.198;9.920;2022-10-16T11:10:44;2.00;;;0.77;;
13967;SDS011;39536;52.198;9.920;2022-10-16T11:13:19;1.53;;;1.07;;
13967;SDS011;39536;52.198;9.920;2022-10-16T11:15:53;1.83;;;0.90;;
13967;SDS011;39536;52.198;9.920;2022-10-16T11:18:24;0.73;;;0.63;;
13967;SDS011;39536;52.198;9.920;2022-10-16T11:20:59;2.00;;;0.80;;
13967;SDS011;39536;52.198;9.920;2022-10-16T11:23:29;0.70;;;0.60;;
13967;SDS011;39536;52.198;9.920;2022-10-16T11:26:01;1.20;;;0.73;;
13967;SDS011;39536;52.198;9.920;2022-10-16T11:28:32;4.63;;;0.77;;
13967;SDS011;39536;52.198;9.920;2022-10-16T11:31:05;1.80;;;0.60;;
13967;SDS011;39536;52.198;9.920;2022-10-16T11:33:37;1.10;;;0.50;;
13967;SDS011;39536;52.198;9.920;2022-10-16T11:36:11;0.70;;;0.70;;
13967;SDS011;39536;52.198;9.920;2022-10-16T11:38:41;0.67;;;0.60;;
13967;SDS011;39536;52.198;9.920;2022-10-16T11:41:15;1.30;;;0.63;;
13967;SDS011;39536;52.198;9.920;2022-10-16T11:43:49;0.83;;;0.63;;
13967;SDS011;39536;52.198;9.920;2022-10-16T11:46:24;1.33;;;0.70;;
13967;SDS011;39536;52.198;9.920;2022-10-16T11:48:56;0.60;;;0.60;;
13967;SDS011;39536;52.198;9.920;2022-10-16T11:51:45;1.63;;;0.93;;
13967;SDS011;39536;52.198;9.920;2022-10-16T11:54:22;2.30;;;0.60;;
13967;SDS011;39536;52.198;9.920;2022-10-16T11:56:57;1.07;;;0.50;;
13967;SDS011;39536;52.198;9.920;2022-10-16T11:59:30;1.13;;;0.50;;
13967;SDS011;39536;52.198;9.920;2022-10-16T12:02:13;0.83;;;0.37;;
13967;SDS011;39536;52.198;9.920;2022-10-16T12:04:58;0.83;;;0.53;;
13967;SDS011;39536;52.198;9.920;2022-10-16T12:07:36;0.33;;;0.30;;
13967;SDS011;39536;52.198;9.920;2022-10-16T12:10:17;0.43;;;0.37;;
13967;SDS011;39536;52.198;9.920;2022-10-16T12:12:47;0.57;;;0.30;;
13967;SDS011;39536;52.198;9.920;2022-10-16T12:15:21;0.63;;;0.40;;
13967;SDS011;39536;52.198;9.920;2022-10-16T12:17:49;1.50;;;0.70;;
13967;SDS011;39536;52.198;9.920;2022-10-16T12:20:21;0.40;;;0.40;;
13967;SDS011;39536;52.198;9.920;2022-10-16T12:22:53;0.60;;;0.50;;
13967;SDS011;39536;52.198;9.920;2022-10-16T12:25:23;2.00;;;0.47;;
13967;SDS011;39536;52.198;9.920;2022-10-16T12:27:56;0.93;;;0.33;;
13967;SDS011;39536;52.198;9.920;2022-10-16T12:30:26;0.63;;;0.40;;
13967;SDS011;39536;52.198;9.920;2022-10-16T12:32:54;2.10;;;0.77;;
13967;SDS011;39536;52.198;9.920;2022-10-16T12:35:23;2.23;;;0.60;;
13967;SDS011;39536;52.198;9.920;2022-10-16T12:37:52;2.27;;;0.50;;
13967;SDS011;39536;52.198;9.920;2022-10-16T12:40:24;1.03;;;0.40;;
13967;SDS011;39536;52.198;9.920;2022-10-16T12:42:54;0.50;;;0.40;;
13967;SDS011;39536;52.198;9.920;2022-10-16T12:45:25;0.90;;;0.40;;
13967;SDS011;39536;52.198;9.920;2022-10-16T12:47:55;0.73;;;0.50;;
13967;SDS011;39536;52.198;9.920;2022-10-16T12:50:26;1.83;;;0.43;;
13967;SDS011;39536;52.198;9.920;2022-10-16T12:52:58;1.30;;;0.60;;
13967;SDS011;39536;52.198;9.920;2022-10-16T12:55:25;0.50;;;0.47;;
13967;SDS011;39536;52.198;9.920;2022-10-16T13:00:56;1.60;;;0.70;;
13967;SDS011;39536;52.198;9.920;2022-10-16T13:03:34;0.40;;;0.40;;
13967;SDS011;39536;52.198;9.920;2022-10-16T13:06:22;0.40;;;0.40;;
13967;SDS011;39536;52.198;9.920;2022-10-16T13:09:02;2.80;;;0.70;;
13967;SDS011;39536;52.198;9.920;2022-10-16T13:11:49;0.53;;;0.53;;
13967;SDS011;39536;52.198;9.920;2022-10-16T13:17:35;1.03;;;0.53;;
13967;SDS011;39536;52.198;9.920;2022-10-16T13:20:11;0.80;;;0.63;;
13967;SDS011;39536;52.198;9.920;2022-10-16T13:22:45;1.07;;;0.90;;
13967;SDS011;39536;52.198;9.920;2022-10-16T13:25:24;0.70;;;0.60;;
13967;SDS011;39536;52.198;9.920;2022-10-16T13:27:59;1.20;;;0.63;;
13967;SDS011;39536;52.198;9.920;2022-10-16T13:30:28;0.93;;;0.50;;
13967;SDS011;39536;52.198;9.920;2022-10-16T13:32:57;1.60;;;0.57;;
13967;SDS011;39536;52.198;9.920;2022-10-16T13:35:27;0.73;;;0.60;;
13967;SDS011;39536;52.198;9.920;2022-10-16T13:38:05;1.20;;;0.90;;
13967;SDS011;39536;52.198;9.920;2022-10-16T13:40:47;1.30;;;0.83;;
13967;SDS011;39536;52.198;9.920;2022-10-16T13:43:14;1.33;;;1.03;;
13967;SDS011;39536;52.198;9.920;2022-10-16T13:45:51;1.10;;;0.60;;
13967;SDS011;39536;52.198;9.920;2022-10-16T13:48:19;0.60;;;0.60;;
13967;SDS011;39536;52.198;9.920;2022-10-16T13:50:45;0.53;;;0.40;;
13967;SDS011;39536;52.198;9.920;2022-10-16T13:53:13;0.47;;;0.30;;
13967;SDS011;39536;52.198;9.920;2022-10-16T13:55:41;1.30;;;0.43;;
13967;SDS011;39536;52.198;9.920;2022-10-16T13:58:10;0.50;;;0.50;;
13967;SDS011;39536;52.198;9.920;2022-10-16T14:00:38;2.10;;;0.60;;
13967;SDS011;39536;52.198;9.920;2022-10-16T14:03:11;1.90;;;0.50;;
13967;SDS011;39536;52.198;9.920;2022-10-16T14:05:42;1.63;;;0.60;;
13967;SDS011;39536;52.198;9.920;2022-10-16T14:08:13;2.07;;;0.93;;
13967;SDS011;39536;52.198;9.920;2022-10-16T14:10:40;1.03;;;0.33;;
13967;SDS011;39536;52.198;9.920;2022-10-16T14:13:12;0.70;;;0.53;;
13967;SDS011;39536;52.198;9.920;2022-10-16T14:15:45;0.83;;;0.60;;
13967;SDS011;39536;52.198;9.920;2022-10-16T14:18:15;1.97;;;0.73;;
13967;SDS011;39536;52.198;9.920;2022-10-16T14:20:46;0.97;;;0.50;;
13967;SDS011;39536;52.198;9.920;2022-10-16T14:23:19;0.70;;;0.60;;
13967;SDS011;39536;52.198;9.920;2022-10-16T14:25:49;0.90;;;0.50;;
13967;SDS011;39536;52.198;9.920;2022-10-16T14:28:16;0.50;;;0.50;;
13967;SDS011;39536;52.198;9.920;2022-10-16T14:30:51;1.43;;;0.67;;
13967;SDS011;39536;52.198;9.920;2022-10-16T14:33:20;0.40;;;0.40;;
13967;SDS011;39536;52.198;9.920;2022-10-16T14:35:58;1.87;;;0.63;;
13967;SDS011;39536;52.198;9.920;2022-10-16T14:38:27;0.93;;;0.40;;
13967;SDS011;39536;52.198;9.920;2022-10-16T14:40:56;0.87;;;0.73;;
13967;SDS011;39536;52.198;9.920;2022-10-16T14:43:26;1.30;;;0.50;;
13967;SDS011;39536;52.198;9.920;2022-10-16T14:45:57;1.03;;;0.50;;
13967;SDS011;39536;52.198;9.920;2022-10-16T14:48:24;0.73;;;0.57;;
13967;SDS011;39536;52.198;9.920;2022-10-16T14:50:50;0.40;;;0.40;;
13967;SDS011;39536;52.198;9.920;2022-10-16T14:53:16;1.90;;;0.33;;
13967;SDS011;39536;52.198;9.920;2022-10-16T14:55:43;0.40;;;0.40;;
13967;SDS011;39536;52.198;9.920;2022-10-16T14:58:13;1.43;;;0.63;;
13967;SDS011;39536;52.198;9.920;2022-10-16T15:00:42;1.83;;;0.80;;
13967;SDS011;39536;52.198;9.920;2022-10-16T15:03:09;0.50;;;0.50;;
13967;SDS011;39536;52.198;9.920;2022-10-16T15:05:36;0.97;;;0.50;;
13967;SDS011;39536;52.198;9.920;2022-10-16T15:08:02;1.30;;;0.70;;
13967;SDS011;39536;52.198;9.920;2022-10-16T15:10:30;2.53;;;0.80;;
13967;SDS011;39536;52.198;9.920;2022-10-16T15:12:57;0.93;;;0.80;;
13967;SDS011;39536;52.198;9.920;2022-10-16T15:15:32;2.53;;;0.50;;
13967;SDS011;39536;52.198;9.920;2022-10-16T15:18:00;0.57;;;0.57;;